sensor_id;sensor_type;location;lat;lon;timestamp;P1;durP1;ratioP1;P2;durP2;ratioP2
26504;SDS011;19493;48.042;7.584;2024-02-23T00:01:49;1.05;;;0.30;;
26504;SDS011;19493;48.042;7.584;2024-02-23T00:04:15;2.75;;;0.30;;
26504;SDS011;19493;48.042;7.584;2024-02-23T00:06:43;1.58;;;0.38;;
26504;SDS011;19493;48.042;7.584;2024-02-23T00:09:08;1.25;;;0.40;;
26504;SDS011;19493;48.042;7.584;2024-02-23T00:11:35;1.67;;;0.40;;
26504;SDS011;19493;48.042;7.584;2024-02-23T00:14:04;0.50;;;0.30;;
26504;SDS011;19493;48.042;7.584;2024-02-23T00:16:30;5.70;;;0.30;;
26504;SDS011;19493;48.042;7.584;2024-02-23T00:18:56;2.08;;;0.52;;
26504;SDS011;19493;48.042;7.584;2024-02-23T00:21:23;0.77;;;0.20;;
26504;SDS011;19493;48.042;7.584;2024-02-23T00:23:48;2.20;;;0.30;;
26504;SDS011;19493;48.042;7.584;2024-02-23T00:26:14;5.72;;;0.38;;
26504;SDS011;19493;48.042;7.584;2024-02-23T00:28:39;5.28;;;0.50;;
26504;SDS011;19493;48.042;7.584;2024-02-23T00:31:05;7.38;;;0.47;;
26504;SDS011;19493;48.042;7.584;2024-02-23T00:33:30;0.88;;;0.40;;
26504;SDS011;19493;48.042;7.584;2024-02-23T00:35:56;1.13;;;0.35;;
26504;SDS011;19493;48.042;7.584;2024-02-23T00:38:22;0.98;;;0.20;;
26504;SDS011;19493;48.042;7.584;2024-02-23T00:40:47;2.33;;;0.40;;
26504;SDS011;19493;48.042;7.584;2024-02-23T00:43:13;5.32;;;0.60;;
26504;SDS011;19493;48.042;7.584;2024-02-23T00:45:39;2.25;;;0.43;;
26504;SDS011;19493;48.042;7.584;2024-02-23T00:48:04;0.55;;;0.30;;
26504;SDS011;19493;48.042;7.584;2024-02-23T00:50:31;1.05;;;0.30;;
26504;SDS011;19493;48.042;7.584;2024-02-23T00:52:57;2.47;;;0.38;;
26504;SDS011;19493;48.042;7.584;2024-02-23T00:55:22;3.65;;;0.63;;
26504;SDS011;19493;48.042;7.584;2024-02-23T00:57:50;1.38;;;0.40;;
26504;SDS011;19493;48.042;7.584;2024-02-23T01:00:16;2.38;;;0.30;;
26504;SDS011;19493;48.042;7.584;2024-02-23T01:02:41;6.57;;;0.40;;
26504;SDS011;19493;48.042;7.584;2024-02-23T01:05:07;0.40;;;0.40;;
26504;SDS011;19493;48.042;7.584;2024-02-23T01:07:35;1.08;;;0.32;;
26504;SDS011;19493;48.042;7.584;2024-02-23T01:10:01;3.03;;;0.30;;
26504;SDS011;19493;48.042;7.584;2024-02-23T01:12:26;1.38;;;0.43;;
26504;SDS011;19493;48.042;7.584;2024-02-23T01:14:53;2.10;;;0.40;;
26504;SDS011;19493;48.042;7.584;2024-02-23T01:17:18;2.88;;;0.50;;
26504;SDS011;19493;48.042;7.584;2024-02-23T01:19:44;1.83;;;0.43;;
26504;SDS011;19493;48.042;7.584;2024-02-23T01:22:10;1.05;;;0.57;;
26504;SDS011;19493;48.042;7.584;2024-02-23T01:24:35;3.78;;;0.50;;
26504;SDS011;19493;48.042;7.584;2024-02-23T01:27:01;3.42;;;0.60;;
26504;SDS011;19493;48.042;7.584;2024-02-23T01:29:27;0.60;;;0.30;;
26504;SDS011;19493;48.042;7.584;2024-02-23T01:31:53;6.32;;;0.95;;
26504;SDS011;19493;48.042;7.584;2024-02-23T01:34:19;6.13;;;0.50;;
26504;SDS011;19493;48.042;7.584;2024-02-23T01:36:46;10.18;;;0.88;;
26504;SDS011;19493;48.042;7.584;2024-02-23T01:39:11;2.22;;;0.80;;
26504;SDS011;19493;48.042;7.584;2024-02-23T01:41:37;2.45;;;0.38;;
26504;SDS011;19493;48.042;7.584;2024-02-23T01:44:03;9.23;;;1.08;;
26504;SDS011;19493;48.042;7.584;2024-02-23T01:46:28;3.70;;;0.60;;
26504;SDS011;19493;48.042;7.584;2024-02-23T01:48:54;3.88;;;0.60;;
26504;SDS011;19493;48.042;7.584;2024-02-23T01:51:20;1.60;;;0.40;;
26504;SDS011;19493;48.042;7.584;2024-02-23T01:53:46;4.80;;;0.55;;
26504;SDS011;19493;48.042;7.584;2024-02-23T01:56:12;1.55;;;0.57;;
26504;SDS011;19493;48.042;7.584;2024-02-23T01:58:42;2.67;;;0.60;;
26504;SDS011;19493;48.042;7.584;2024-02-23T02:01:09;6.70;;;0.80;;
26504;SDS011;19493;48.042;7.584;2024-02-23T02:03:35;3.65;;;0.85;;
26504;SDS011;19493;48.042;7.584;2024-02-23T02:06:03;7.47;;;0.70;;
26504;SDS011;19493;48.042;7.584;2024-02-23T02:08:30;1.30;;;0.95;;
26504;SDS011;19493;48.042;7.584;2024-02-23T02:10:56;2.97;;;0.90;;
26504;SDS011;19493;48.042;7.584;2024-02-23T02:13:21;3.40;;;0.70;;
26504;SDS011;19493;48.042;7.584;2024-02-23T02:15:47;3.85;;;0.52;;
26504;SDS011;19493;48.042;7.584;2024-02-23T02:18:12;3.60;;;0.70;;
26504;SDS011;19493;48.042;7.584;2024-02-23T02:20:38;4.82;;;0.80;;
26504;SDS011;19493;48.042;7.584;2024-02-23T02:23:11;14.15;;;0.80;;
26504;SDS011;19493;48.042;7.584;2024-02-23T02:25:37;3.63;;;1.73;;
26504;SDS011;19493;48.042;7.584;2024-02-23T02:28:05;3.88;;;0.85;;
26504;SDS011;19493;48.042;7.584;2024-02-23T02:30:31;7.32;;;0.60;;
26504;SDS011;19493;48.042;7.584;2024-02-23T02:32:57;2.17;;;0.60;;
26504;SDS011;19493;48.042;7.584;2024-02-23T02:35:22;3.83;;;0.65;;
26504;SDS011;19493;48.042;7.584;2024-02-23T02:37:48;10.38;;;0.88;;
26504;SDS011;19493;48.042;7.584;2024-02-23T02:40:14;2.92;;;0.70;;
26504;SDS011;19493;48.042;7.584;2024-02-23T02:42:40;4.45;;;0.73;;
26504;SDS011;19493;48.042;7.584;2024-02-23T02:45:05;3.30;;;0.60;;
26504;SDS011;19493;48.042;7.584;2024-02-23T02:47:31;3.58;;;0.60;;
26504;SDS011;19493;48.042;7.584;2024-02-23T02:49:57;4.40;;;0.85;;
26504;SDS011;19493;48.042;7.584;2024-02-23T02:52:23;8.00;;;0.70;;
26504;SDS011;19493;48.042;7.584;2024-02-23T02:54:49;2.03;;;0.80;;
26504;SDS011;19493;48.042;7.584;2024-02-23T02:57:16;2.95;;;0.52;;
26504;SDS011;19493;48.042;7.584;2024-02-23T02:59:41;5.28;;;0.80;;
26504;SDS011;19493;48.042;7.584;2024-02-23T03:02:09;9.55;;;0.60;;
26504;SDS011;19493;48.042;7.584;2024-02-23T03:04:35;2.50;;;0.90;;
26504;SDS011;19493;48.042;7.584;2024-02-23T03:07:00;12.63;;;0.93;;
26504;SDS011;19493;48.042;7.584;2024-02-23T03:09:26;5.10;;;0.70;;
26504;SDS011;19493;48.042;7.584;2024-02-23T03:11:51;3.53;;;0.75;;
26504;SDS011;19493;48.042;7.584;2024-02-23T03:14:17;3.05;;;0.63;;
26504;SDS011;19493;48.042;7.584;2024-02-23T03:16:43;2.72;;;0.85;;
26504;SDS011;19493;48.042;7.584;2024-02-23T03:19:09;7.13;;;1.10;;
26504;SDS011;19493;48.042;7.584;2024-02-23T03:21:35;0.77;;;0.40;;
26504;SDS011;19493;48.042;7.584;2024-02-23T03:24:00;6.80;;;0.80;;
26504;SDS011;19493;48.042;7.584;2024-02-23T03:26:26;1.95;;;0.65;;
26504;SDS011;19493;48.042;7.584;2024-02-23T03:28:51;6.65;;;0.80;;
26504;SDS011;19493;48.042;7.584;2024-02-23T03:31:17;16.60;;;0.80;;
26504;SDS011;19493;48.042;7.584;2024-02-23T03:33:42;3.58;;;0.70;;
26504;SDS011;19493;48.042;7.584;2024-02-23T03:36:08;2.53;;;0.90;;
26504;SDS011;19493;48.042;7.584;2024-02-23T03:38:33;1.42;;;0.60;;
26504;SDS011;19493;48.042;7.584;2024-02-23T03:40:59;6.03;;;0.60;;
26504;SDS011;19493;48.042;7.584;2024-02-23T03:43:25;5.70;;;0.82;;
26504;SDS011;19493;48.042;7.584;2024-02-23T03:45:52;6.57;;;0.75;;
26504;SDS011;19493;48.042;7.584;2024-02-23T03:48:17;3.35;;;0.60;;
26504;SDS011;19493;48.042;7.584;2024-02-23T03:50:43;5.38;;;0.77;;
26504;SDS011;19493;48.042;7.584;2024-02-23T03:53:08;6.45;;;0.60;;
26504;SDS011;19493;48.042;7.584;2024-02-23T03:55:34;6.75;;;0.98;;
26504;SDS011;19493;48.042;7.584;2024-02-23T03:57:59;2.40;;;0.40;;
26504;SDS011;19493;48.042;7.584;2024-02-23T04:00:25;4.22;;;0.57;;
26504;SDS011;19493;48.042;7.584;2024-02-23T04:02:51;8.13;;;0.80;;
26504;SDS011;19493;48.042;7.584;2024-02-23T04:05:17;5.03;;;0.70;;
26504;SDS011;19493;48.042;7.584;2024-02-23T04:07:43;7.03;;;1.00;;
26504;SDS011;19493;48.042;7.584;2024-02-23T04:10:09;1.27;;;0.50;;
26504;SDS011;19493;48.042;7.584;2024-02-23T04:12:35;5.38;;;0.68;;
26504;SDS011;19493;48.042;7.584;2024-02-23T04:15:00;6.25;;;0.82;;
26504;SDS011;19493;48.042;7.584;2024-02-23T04:17:26;3.58;;;0.70;;
26504;SDS011;19493;48.042;7.584;2024-02-23T04:19:52;2.53;;;1.00;;
26504;SDS011;19493;48.042;7.584;2024-02-23T04:22:17;4.05;;;0.80;;
26504;SDS011;19493;48.042;7.584;2024-02-23T04:24:43;3.45;;;1.20;;
26504;SDS011;19493;48.042;7.584;2024-02-23T04:27:08;5.90;;;1.08;;
26504;SDS011;19493;48.042;7.584;2024-02-23T04:29:34;7.35;;;0.85;;
26504;SDS011;19493;48.042;7.584;2024-02-23T04:32:02;9.00;;;1.08;;
26504;SDS011;19493;48.042;7.584;2024-02-23T04:34:28;3.10;;;0.73;;
26504;SDS011;19493;48.042;7.584;2024-02-23T04:36:54;4.65;;;0.70;;
26504;SDS011;19493;48.042;7.584;2024-02-23T04:39:20;6.55;;;0.90;;
26504;SDS011;19493;48.042;7.584;2024-02-23T04:41:46;13.85;;;1.17;;
26504;SDS011;19493;48.042;7.584;2024-02-23T04:44:12;6.47;;;1.27;;
26504;SDS011;19493;48.042;7.584;2024-02-23T04:46:38;4.72;;;1.02;;
26504;SDS011;19493;48.042;7.584;2024-02-23T04:49:03;7.70;;;0.90;;
26504;SDS011;19493;48.042;7.584;2024-02-23T04:51:29;8.93;;;1.00;;
26504;SDS011;19493;48.042;7.584;2024-02-23T04:53:54;7.18;;;0.90;;
26504;SDS011;19493;48.042;7.584;2024-02-23T04:56:20;10.02;;;1.13;;
26504;SDS011;19493;48.042;7.584;2024-02-23T04:58:46;4.40;;;0.98;;
26504;SDS011;19493;48.042;7.584;2024-02-23T05:01:12;6.43;;;1.20;;
26504;SDS011;19493;48.042;7.584;2024-02-23T05:03:37;5.65;;;1.00;;
26504;SDS011;19493;48.042;7.584;2024-02-23T05:06:03;8.63;;;1.17;;
26504;SDS011;19493;48.042;7.584;2024-02-23T05:08:29;3.78;;;1.00;;
26504;SDS011;19493;48.042;7.584;2024-02-23T05:10:55;8.93;;;1.08;;
26504;SDS011;19493;48.042;7.584;2024-02-23T05:13:21;10.18;;;1.15;;
26504;SDS011;19493;48.042;7.584;2024-02-23T05:15:47;7.25;;;1.17;;
26504;SDS011;19493;48.042;7.584;2024-02-23T05:18:13;11.32;;;1.45;;
26504;SDS011;19493;48.042;7.584;2024-02-23T05:20:38;6.40;;;0.90;;
26504;SDS011;19493;48.042;7.584;2024-02-23T05:23:04;3.85;;;1.15;;
26504;SDS011;19493;48.042;7.584;2024-02-23T05:25:30;2.55;;;1.00;;
26504;SDS011;19493;48.042;7.584;2024-02-23T05:27:55;7.43;;;0.95;;
26504;SDS011;19493;48.042;7.584;2024-02-23T05:30:21;16.05;;;1.10;;
26504;SDS011;19493;48.042;7.584;2024-02-23T05:32:47;7.18;;;1.10;;
26504;SDS011;19493;48.042;7.584;2024-02-23T05:35:13;5.28;;;0.90;;
26504;SDS011;19493;48.042;7.584;2024-02-23T05:37:38;5.15;;;1.20;;
26504;SDS011;19493;48.042;7.584;2024-02-23T05:40:04;4.80;;;0.90;;
26504;SDS011;19493;48.042;7.584;2024-02-23T05:42:34;5.43;;;1.23;;
26504;SDS011;19493;48.042;7.584;2024-02-23T05:45:00;5.25;;;1.17;;
26504;SDS011;19493;48.042;7.584;2024-02-23T05:47:26;12.90;;;1.88;;
26504;SDS011;19493;48.042;7.584;2024-02-23T05:49:52;10.63;;;0.93;;
26504;SDS011;19493;48.042;7.584;2024-02-23T05:52:18;8.38;;;1.50;;
26504;SDS011;19493;48.042;7.584;2024-02-23T05:54:43;4.38;;;1.23;;
26504;SDS011;19493;48.042;7.584;2024-02-23T05:57:09;5.70;;;1.40;;
26504;SDS011;19493;48.042;7.584;2024-02-23T05:59:35;5.68;;;1.40;;
26504;SDS011;19493;48.042;7.584;2024-02-23T06:02:00;3.65;;;0.85;;
26504;SDS011;19493;48.042;7.584;2024-02-23T06:04:26;11.23;;;1.25;;
26504;SDS011;19493;48.042;7.584;2024-02-23T06:06:52;10.30;;;1.10;;
26504;SDS011;19493;48.042;7.584;2024-02-23T06:09:18;6.95;;;1.10;;
26504;SDS011;19493;48.042;7.584;2024-02-23T06:11:44;6.00;;;0.95;;
26504;SDS011;19493;48.042;7.584;2024-02-23T06:14:09;13.27;;;1.25;;
26504;SDS011;19493;48.042;7.584;2024-02-23T06:16:36;8.10;;;1.05;;
26504;SDS011;19493;48.042;7.584;2024-02-23T06:19:02;4.97;;;1.33;;
26504;SDS011;19493;48.042;7.584;2024-02-23T06:21:28;10.32;;;1.40;;
26504;SDS011;19493;48.042;7.584;2024-02-23T06:23:54;21.67;;;3.35;;
26504;SDS011;19493;48.042;7.584;2024-02-23T06:26:20;12.93;;;1.70;;
26504;SDS011;19493;48.042;7.584;2024-02-23T06:28:46;6.68;;;1.35;;
26504;SDS011;19493;48.042;7.584;2024-02-23T06:31:13;10.05;;;1.63;;
26504;SDS011;19493;48.042;7.584;2024-02-23T06:33:39;9.38;;;1.55;;
26504;SDS011;19493;48.042;7.584;2024-02-23T06:36:06;15.05;;;1.52;;
26504;SDS011;19493;48.042;7.584;2024-02-23T06:38:32;14.75;;;1.30;;
26504;SDS011;19493;48.042;7.584;2024-02-23T06:40:58;10.82;;;1.40;;
26504;SDS011;19493;48.042;7.584;2024-02-23T06:43:24;6.60;;;1.20;;
26504;SDS011;19493;48.042;7.584;2024-02-23T06:45:49;16.48;;;2.20;;
26504;SDS011;19493;48.042;7.584;2024-02-23T06:48:16;22.00;;;2.50;;
26504;SDS011;19493;48.042;7.584;2024-02-23T06:50:41;21.67;;;3.40;;
26504;SDS011;19493;48.042;7.584;2024-02-23T06:53:07;5.95;;;1.73;;
26504;SDS011;19493;48.042;7.584;2024-02-23T06:55:34;13.45;;;2.05;;
26504;SDS011;19493;48.042;7.584;2024-02-23T06:58:00;10.77;;;1.40;;
26504;SDS011;19493;48.042;7.584;2024-02-23T07:00:26;6.55;;;1.08;;
26504;SDS011;19493;48.042;7.584;2024-02-23T07:02:51;17.38;;;1.40;;
26504;SDS011;19493;48.042;7.584;2024-02-23T07:05:17;10.70;;;1.35;;
26504;SDS011;19493;48.042;7.584;2024-02-23T07:07:43;7.53;;;1.27;;
26504;SDS011;19493;48.042;7.584;2024-02-23T07:10:09;6.47;;;1.27;;
26504;SDS011;19493;48.042;7.584;2024-02-23T07:12:35;13.82;;;2.10;;
26504;SDS011;19493;48.042;7.584;2024-02-23T07:15:01;19.85;;;2.38;;
26504;SDS011;19493;48.042;7.584;2024-02-23T07:17:27;19.63;;;2.28;;
26504;SDS011;19493;48.042;7.584;2024-02-23T07:19:53;10.05;;;1.90;;
26504;SDS011;19493;48.042;7.584;2024-02-23T07:22:19;10.07;;;1.35;;
26504;SDS011;19493;48.042;7.584;2024-02-23T07:24:45;14.27;;;1.95;;
26504;SDS011;19493;48.042;7.584;2024-02-23T07:27:11;10.07;;;1.55;;
26504;SDS011;19493;48.042;7.584;2024-02-23T07:29:36;10.43;;;1.50;;
26504;SDS011;19493;48.042;7.584;2024-02-23T07:32:02;8.23;;;1.33;;
26504;SDS011;19493;48.042;7.584;2024-02-23T07:34:28;12.95;;;1.40;;
26504;SDS011;19493;48.042;7.584;2024-02-23T07:36:54;9.38;;;1.40;;
26504;SDS011;19493;48.042;7.584;2024-02-23T07:39:20;9.00;;;1.50;;
26504;SDS011;19493;48.042;7.584;2024-02-23T07:41:47;29.08;;;6.95;;
26504;SDS011;19493;48.042;7.584;2024-02-23T07:44:13;21.15;;;2.60;;
26504;SDS011;19493;48.042;7.584;2024-02-23T07:46:38;6.68;;;1.25;;
26504;SDS011;19493;48.042;7.584;2024-02-23T07:49:04;8.85;;;1.45;;
26504;SDS011;19493;48.042;7.584;2024-02-23T07:51:31;16.25;;;1.70;;
26504;SDS011;19493;48.042;7.584;2024-02-23T07:53:57;13.23;;;2.83;;
26504;SDS011;19493;48.042;7.584;2024-02-23T07:56:23;5.00;;;1.40;;
26504;SDS011;19493;48.042;7.584;2024-02-23T07:58:48;5.95;;;1.20;;
26504;SDS011;19493;48.042;7.584;2024-02-23T08:01:14;18.65;;;1.75;;
26504;SDS011;19493;48.042;7.584;2024-02-23T08:03:40;9.98;;;1.75;;
26504;SDS011;19493;48.042;7.584;2024-02-23T08:06:05;7.18;;;1.30;;
26504;SDS011;19493;48.042;7.584;2024-02-23T08:08:31;5.90;;;1.52;;
26504;SDS011;19493;48.042;7.584;2024-02-23T08:11:03;3.55;;;1.20;;
26504;SDS011;19493;48.042;7.584;2024-02-23T08:13:29;16.90;;;1.20;;
26504;SDS011;19493;48.042;7.584;2024-02-23T08:15:55;8.45;;;1.42;;
26504;SDS011;19493;48.042;7.584;2024-02-23T08:18:22;10.35;;;1.77;;
26504;SDS011;19493;48.042;7.584;2024-02-23T08:20:48;18.02;;;1.42;;
26504;SDS011;19493;48.042;7.584;2024-02-23T08:23:13;14.18;;;1.77;;
26504;SDS011;19493;48.042;7.584;2024-02-23T08:25:39;32.47;;;2.85;;
26504;SDS011;19493;48.042;7.584;2024-02-23T08:28:05;12.93;;;1.63;;
26504;SDS011;19493;48.042;7.584;2024-02-23T08:30:31;11.65;;;2.42;;
26504;SDS011;19493;48.042;7.584;2024-02-23T08:32:57;6.82;;;1.70;;
26504;SDS011;19493;48.042;7.584;2024-02-23T08:35:22;12.98;;;1.95;;
26504;SDS011;19493;48.042;7.584;2024-02-23T08:37:48;18.73;;;1.92;;
26504;SDS011;19493;48.042;7.584;2024-02-23T08:40:14;10.73;;;1.52;;
26504;SDS011;19493;48.042;7.584;2024-02-23T08:42:39;13.88;;;1.60;;
26504;SDS011;19493;48.042;7.584;2024-02-23T08:45:05;8.75;;;1.55;;
26504;SDS011;19493;48.042;7.584;2024-02-23T08:47:31;17.63;;;1.65;;
26504;SDS011;19493;48.042;7.584;2024-02-23T08:50:00;12.60;;;1.88;;
26504;SDS011;19493;48.042;7.584;2024-02-23T08:52:26;17.92;;;2.10;;
26504;SDS011;19493;48.042;7.584;2024-02-23T08:54:51;16.70;;;2.25;;
26504;SDS011;19493;48.042;7.584;2024-02-23T08:57:17;16.75;;;2.38;;
26504;SDS011;19493;48.042;7.584;2024-02-23T08:59:48;12.23;;;1.60;;
26504;SDS011;19493;48.042;7.584;2024-02-23T09:02:14;9.48;;;1.77;;
26504;SDS011;19493;48.042;7.584;2024-02-23T09:04:39;24.92;;;1.85;;
26504;SDS011;19493;48.042;7.584;2024-02-23T09:07:05;12.52;;;1.70;;
26504;SDS011;19493;48.042;7.584;2024-02-23T09:09:31;15.13;;;1.73;;
26504;SDS011;19493;48.042;7.584;2024-02-23T09:11:57;11.40;;;1.48;;
26504;SDS011;19493;48.042;7.584;2024-02-23T09:14:23;9.15;;;1.45;;
26504;SDS011;19493;48.042;7.584;2024-02-23T09:16:50;8.75;;;1.90;;
26504;SDS011;19493;48.042;7.584;2024-02-23T09:19:16;12.20;;;2.15;;
26504;SDS011;19493;48.042;7.584;2024-02-23T09:21:42;8.45;;;1.70;;
26504;SDS011;19493;48.042;7.584;2024-02-23T09:24:07;9.80;;;1.63;;
26504;SDS011;19493;48.042;7.584;2024-02-23T09:26:33;5.32;;;1.63;;
26504;SDS011;19493;48.042;7.584;2024-02-23T09:28:59;11.20;;;1.45;;
26504;SDS011;19493;48.042;7.584;2024-02-23T09:31:24;13.48;;;1.67;;
26504;SDS011;19493;48.042;7.584;2024-02-23T09:33:51;10.05;;;1.70;;
26504;SDS011;19493;48.042;7.584;2024-02-23T09:36:17;7.05;;;1.55;;
26504;SDS011;19493;48.042;7.584;2024-02-23T09:38:43;9.43;;;1.60;;
26504;SDS011;19493;48.042;7.584;2024-02-23T09:41:11;22.98;;;1.65;;
26504;SDS011;19493;48.042;7.584;2024-02-23T09:43:44;13.95;;;2.05;;
26504;SDS011;19493;48.042;7.584;2024-02-23T09:46:12;16.98;;;1.90;;
26504;SDS011;19493;48.042;7.584;2024-02-23T09:48:39;6.95;;;1.20;;
26504;SDS011;19493;48.042;7.584;2024-02-23T09:51:05;7.20;;;1.10;;
26504;SDS011;19493;48.042;7.584;2024-02-23T09:53:33;20.50;;;4.07;;
26504;SDS011;19493;48.042;7.584;2024-02-23T09:56:01;16.25;;;2.22;;
26504;SDS011;19493;48.042;7.584;2024-02-23T09:58:29;12.18;;;1.45;;
26504;SDS011;19493;48.042;7.584;2024-02-23T10:00:57;14.68;;;2.60;;
26504;SDS011;19493;48.042;7.584;2024-02-23T10:03:24;9.63;;;1.42;;
26504;SDS011;19493;48.042;7.584;2024-02-23T10:05:55;14.52;;;2.05;;
26504;SDS011;19493;48.042;7.584;2024-02-23T10:08:21;14.68;;;1.63;;
26504;SDS011;19493;48.042;7.584;2024-02-23T10:10:47;16.98;;;2.00;;
26504;SDS011;19493;48.042;7.584;2024-02-23T10:13:17;17.00;;;3.05;;
26504;SDS011;19493;48.042;7.584;2024-02-23T10:15:47;8.43;;;1.55;;
26504;SDS011;19493;48.042;7.584;2024-02-23T10:18:13;9.82;;;1.25;;
26504;SDS011;19493;48.042;7.584;2024-02-23T10:20:39;10.63;;;3.20;;
26504;SDS011;19493;48.042;7.584;2024-02-23T10:23:05;11.05;;;1.77;;
26504;SDS011;19493;48.042;7.584;2024-02-23T10:25:35;20.25;;;2.97;;
26504;SDS011;19493;48.042;7.584;2024-02-23T10:28:02;10.55;;;2.28;;
26504;SDS011;19493;48.042;7.584;2024-02-23T10:30:27;9.27;;;3.03;;
26504;SDS011;19493;48.042;7.584;2024-02-23T10:32:55;17.58;;;2.90;;
26504;SDS011;19493;48.042;7.584;2024-02-23T10:35:22;7.70;;;1.90;;
26504;SDS011;19493;48.042;7.584;2024-02-23T10:37:49;10.50;;;1.90;;
26504;SDS011;19493;48.042;7.584;2024-02-23T10:40:17;15.85;;;1.27;;
26504;SDS011;19493;48.042;7.584;2024-02-23T10:42:44;13.30;;;1.25;;
26504;SDS011;19493;48.042;7.584;2024-02-23T10:45:19;8.50;;;1.55;;
26504;SDS011;19493;48.042;7.584;2024-02-23T10:47:49;6.05;;;1.42;;
26504;SDS011;19493;48.042;7.584;2024-02-23T10:50:15;4.32;;;1.42;;
26504;SDS011;19493;48.042;7.584;2024-02-23T10:52:44;13.68;;;1.77;;
26504;SDS011;19493;48.042;7.584;2024-02-23T10:55:12;8.70;;;1.35;;
26504;SDS011;19493;48.042;7.584;2024-02-23T10:57:39;9.18;;;2.08;;
26504;SDS011;19493;48.042;7.584;2024-02-23T11:00:05;11.70;;;1.50;;
26504;SDS011;19493;48.042;7.584;2024-02-23T11:02:36;16.38;;;1.52;;
26504;SDS011;19493;48.042;7.584;2024-02-23T11:05:11;7.82;;;1.83;;
26504;SDS011;19493;48.042;7.584;2024-02-23T11:07:39;9.20;;;1.38;;
26504;SDS011;19493;48.042;7.584;2024-02-23T11:10:05;14.68;;;1.90;;
26504;SDS011;19493;48.042;7.584;2024-02-23T11:12:31;12.30;;;1.42;;
26504;SDS011;19493;48.042;7.584;2024-02-23T11:14:57;5.63;;;1.20;;
26504;SDS011;19493;48.042;7.584;2024-02-23T11:17:26;9.75;;;1.60;;
26504;SDS011;19493;48.042;7.584;2024-02-23T11:19:54;13.65;;;1.85;;
26504;SDS011;19493;48.042;7.584;2024-02-23T11:22:24;4.93;;;1.30;;
26504;SDS011;19493;48.042;7.584;2024-02-23T11:24:59;10.57;;;1.30;;
26504;SDS011;19493;48.042;7.584;2024-02-23T11:27:31;4.82;;;1.25;;
26504;SDS011;19493;48.042;7.584;2024-02-23T11:30:02;22.75;;;2.00;;
26504;SDS011;19493;48.042;7.584;2024-02-23T11:32:38;8.27;;;2.03;;
26504;SDS011;19493;48.042;7.584;2024-02-23T11:35:06;10.60;;;1.60;;
26504;SDS011;19493;48.042;7.584;2024-02-23T11:37:32;7.13;;;1.17;;
26504;SDS011;19493;48.042;7.584;2024-02-23T11:40:09;8.35;;;1.20;;
26504;SDS011;19493;48.042;7.584;2024-02-23T11:42:35;6.05;;;1.10;;
26504;SDS011;19493;48.042;7.584;2024-02-23T11:45:02;6.25;;;1.10;;
26504;SDS011;19493;48.042;7.584;2024-02-23T11:47:28;6.10;;;0.98;;
26504;SDS011;19493;48.042;7.584;2024-02-23T11:49:54;10.07;;;1.63;;
26504;SDS011;19493;48.042;7.584;2024-02-23T11:52:20;11.23;;;1.50;;
26504;SDS011;19493;48.042;7.584;2024-02-23T11:54:46;9.55;;;1.30;;
26504;SDS011;19493;48.042;7.584;2024-02-23T11:57:12;10.35;;;1.27;;
26504;SDS011;19493;48.042;7.584;2024-02-23T11:59:39;6.03;;;1.50;;
26504;SDS011;19493;48.042;7.584;2024-02-23T12:02:06;9.02;;;1.20;;
26504;SDS011;19493;48.042;7.584;2024-02-23T12:04:32;9.15;;;1.15;;
26504;SDS011;19493;48.042;7.584;2024-02-23T12:06:58;13.05;;;0.77;;
26504;SDS011;19493;48.042;7.584;2024-02-23T12:09:24;6.50;;;0.90;;
26504;SDS011;19493;48.042;7.584;2024-02-23T12:11:50;7.35;;;1.23;;
26504;SDS011;19493;48.042;7.584;2024-02-23T12:14:16;4.13;;;0.73;;
26504;SDS011;19493;48.042;7.584;2024-02-23T12:16:42;5.07;;;1.08;;
26504;SDS011;19493;48.042;7.584;2024-02-23T12:19:08;4.25;;;1.42;;
26504;SDS011;19493;48.042;7.584;2024-02-23T12:21:34;6.95;;;0.98;;
26504;SDS011;19493;48.042;7.584;2024-02-23T12:24:03;5.75;;;0.90;;
26504;SDS011;19493;48.042;7.584;2024-02-23T12:26:33;5.82;;;1.10;;
26504;SDS011;19493;48.042;7.584;2024-02-23T12:29:02;4.38;;;0.77;;
26504;SDS011;19493;48.042;7.584;2024-02-23T12:31:28;3.92;;;0.63;;
26504;SDS011;19493;48.042;7.584;2024-02-23T12:33:57;7.70;;;1.20;;
26504;SDS011;19493;48.042;7.584;2024-02-23T12:36:23;4.05;;;0.65;;
26504;SDS011;19493;48.042;7.584;2024-02-23T12:38:49;16.67;;;1.30;;
26504;SDS011;19493;48.042;7.584;2024-02-23T12:41:14;7.15;;;1.30;;
26504;SDS011;19493;48.042;7.584;2024-02-23T12:43:40;3.17;;;0.70;;
26504;SDS011;19493;48.042;7.584;2024-02-23T12:46:05;2.08;;;0.80;;
26504;SDS011;19493;48.042;7.584;2024-02-23T12:48:33;7.32;;;0.80;;
26504;SDS011;19493;48.042;7.584;2024-02-23T12:50:59;2.97;;;0.55;;
26504;SDS011;19493;48.042;7.584;2024-02-23T12:53:38;5.90;;;0.90;;
26504;SDS011;19493;48.042;7.584;2024-02-23T12:56:08;5.13;;;0.60;;
26504;SDS011;19493;48.042;7.584;2024-02-23T12:58:36;5.78;;;1.50;;
26504;SDS011;19493;48.042;7.584;2024-02-23T13:01:03;9.18;;;0.85;;
26504;SDS011;19493;48.042;7.584;2024-02-23T13:03:29;18.73;;;1.35;;
26504;SDS011;19493;48.042;7.584;2024-02-23T13:05:55;5.50;;;0.82;;
26504;SDS011;19493;48.042;7.584;2024-02-23T13:08:21;4.47;;;1.08;;
26504;SDS011;19493;48.042;7.584;2024-02-23T13:10:51;7.28;;;1.05;;
26504;SDS011;19493;48.042;7.584;2024-02-23T13:13:18;4.68;;;1.15;;
26504;SDS011;19493;48.042;7.584;2024-02-23T13:15:44;3.63;;;0.60;;
26504;SDS011;19493;48.042;7.584;2024-02-23T13:18:10;7.10;;;1.55;;
26504;SDS011;19493;48.042;7.584;2024-02-23T13:20:39;11.02;;;1.23;;
26504;SDS011;19493;48.042;7.584;2024-02-23T13:23:08;10.43;;;0.80;;
26504;SDS011;19493;48.042;7.584;2024-02-23T13:25:38;5.05;;;0.90;;
26504;SDS011;19493;48.042;7.584;2024-02-23T13:28:04;2.85;;;1.17;;
26504;SDS011;19493;48.042;7.584;2024-02-23T13:30:31;10.25;;;1.20;;
26504;SDS011;19493;48.042;7.584;2024-02-23T13:32:57;2.13;;;0.60;;
26504;SDS011;19493;48.042;7.584;2024-02-23T13:35:23;4.50;;;0.80;;
26504;SDS011;19493;48.042;7.584;2024-02-23T13:37:48;5.45;;;0.63;;
26504;SDS011;19493;48.042;7.584;2024-02-23T13:40:14;9.82;;;1.20;;
26504;SDS011;19493;48.042;7.584;2024-02-23T13:42:40;4.18;;;0.77;;
26504;SDS011;19493;48.042;7.584;2024-02-23T13:45:06;6.45;;;1.20;;
26504;SDS011;19493;48.042;7.584;2024-02-23T13:47:33;8.52;;;1.02;;
26504;SDS011;19493;48.042;7.584;2024-02-23T13:50:00;7.70;;;1.00;;
26504;SDS011;19493;48.042;7.584;2024-02-23T13:52:26;3.75;;;0.73;;
26504;SDS011;19493;48.042;7.584;2024-02-23T13:54:52;4.63;;;0.93;;
26504;SDS011;19493;48.042;7.584;2024-02-23T13:57:18;2.88;;;0.63;;
26504;SDS011;19493;48.042;7.584;2024-02-23T13:59:43;3.38;;;0.82;;
26504;SDS011;19493;48.042;7.584;2024-02-23T14:02:09;6.75;;;1.00;;
26504;SDS011;19493;48.042;7.584;2024-02-23T14:04:35;4.47;;;0.70;;
26504;SDS011;19493;48.042;7.584;2024-02-23T14:07:01;8.25;;;1.25;;
26504;SDS011;19493;48.042;7.584;2024-02-23T14:09:26;3.30;;;0.80;;
26504;SDS011;19493;48.042;7.584;2024-02-23T14:11:52;9.52;;;0.82;;
26504;SDS011;19493;48.042;7.584;2024-02-23T14:14:18;18.08;;;1.63;;
26504;SDS011;19493;48.042;7.584;2024-02-23T14:16:45;7.00;;;1.05;;
26504;SDS011;19493;48.042;7.584;2024-02-23T14:19:10;5.70;;;0.70;;
26504;SDS011;19493;48.042;7.584;2024-02-23T14:21:36;2.80;;;0.50;;
26504;SDS011;19493;48.042;7.584;2024-02-23T14:24:02;1.27;;;0.50;;
26504;SDS011;19493;48.042;7.584;2024-02-23T14:26:29;10.68;;;0.68;;
26504;SDS011;19493;48.042;7.584;2024-02-23T14:28:56;2.95;;;0.75;;
26504;SDS011;19493;48.042;7.584;2024-02-23T14:31:21;3.83;;;0.60;;
26504;SDS011;19493;48.042;7.584;2024-02-23T14:33:47;5.13;;;0.70;;
26504;SDS011;19493;48.042;7.584;2024-02-23T14:36:15;3.88;;;0.95;;
26504;SDS011;19493;48.042;7.584;2024-02-23T14:38:41;3.53;;;0.70;;